Time;durP1;ratioP1;P1;durP2;ratioP2;P2;SDS_P1;SDS_P2;PMS_P1;PMS_P2;Temp;Humidity;BMP_temperature;BMP_pressure;BME280_temperature;BME280_humidity;BME280_pressure;Samples;Min_cycle;Max_cycle;Signal;HPM_P1;HPM_P2
2021/12/10 00:00:06;;;;;;;5.65;2.65;;;;;;;;;;5045255;28;20646;-82
2021/12/10 00:02:35;;;;;;;2.67;2.47;;;;;;;;;;5060217;28;20198;-82
2021/12/10 00:05:02;;;;;;;3.13;2.85;;;;;;;;;;5054319;28;20195;-82
2021/12/10 00:07:31;;;;;;;4.20;2.60;;;;;;;;;;5054289;28;20203;-82
2021/12/10 00:10:01;;;;;;;3.03;2.47;;;;;;;;;;5056457;28;20194;-81
2021/12/10 00:12:30;;;;;;;3.55;2.65;;;;;;;;;;5062502;28;20219;-81
2021/12/10 00:14:58;;;;;;;3.63;2.40;;;;;;;;;;5050691;28;20198;-82
2021/12/10 00:17:25;;;;;;;5.05;3.47;;;;;;;;;;5046566;28;20198;-82
2021/12/10 00:19:56;;;;;;;3.05;2.15;;;;;;;;;;5048342;28;20576;-81
2021/12/10 00:22:26;;;;;;;2.85;2.55;;;;;;;;;;5058641;28;20593;-82
2021/12/10 00:24:55;;;;;;;2.72;2.53;;;;;;;;;;5052380;28;20218;-82
2021/12/10 00:27:29;;;;;;;3.33;2.97;;;;;;;;;;5052009;28;20203;-82
2021/12/10 00:30:03;;;;;;;5.78;2.67;;;;;;;;;;5056112;28;20201;-82
2021/12/10 00:32:35;;;;;;;2.95;2.45;;;;;;;;;;5067921;28;20274;-81
2021/12/10 00:35:03;;;;;;;2.50;2.30;;;;;;;;;;5059727;28;20221;-81
2021/12/10 00:37:30;;;;;;;2.67;2.42;;;;;;;;;;5053183;28;20256;-82
2021/12/10 00:40:00;;;;;;;2.45;2.25;;;;;;;;;;5066150;28;20646;-82
2021/12/10 00:42:28;;;;;;;2.60;2.40;;;;;;;;;;5052497;28;20558;-82
2021/12/10 00:44:56;;;;;;;2.75;2.00;;;;;;;;;;5049664;28;20199;-82
2021/12/10 00:47:24;;;;;;;3.60;2.83;;;;;;;;;;5068677;28;20205;-82
2021/12/10 00:49:51;;;;;;;3.15;2.85;;;;;;;;;;5051459;28;20206;-82
2021/12/10 00:52:19;;;;;;;2.90;2.60;;;;;;;;;;5052624;28;20230;-83
2021/12/10 00:54:46;;;;;;;3.05;2.60;;;;;;;;;;5050406;28;20208;-83
2021/12/10 00:57:15;;;;;;;2.30;2.08;;;;;;;;;;5056223;28;20555;-82
2021/12/10 00:59:43;;;;;;;3.10;2.58;;;;;;;;;;5056991;28;20702;-81
2021/12/10 01:02:11;;;;;;;2.90;2.50;;;;;;;;;;5035681;28;20675;-84
2021/12/10 01:04:40;;;;;;;4.28;3.05;;;;;;;;;;5050740;28;20213;-82
2021/12/10 01:07:09;;;;;;;2.40;2.20;;;;;;;;;;5059670;28;20199;-83
2021/12/10 01:09:37;;;;;;;4.25;3.17;;;;;;;;;;5052315;28;20210;-82
2021/12/10 01:12:06;;;;;;;3.50;3.20;;;;;;;;;;5061920;28;20198;-83
2021/12/10 01:14:53;;;;;;;3.92;2.17;;;;;;;;;;5051378;28;20241;-83
2021/12/10 01:25:53;;;;;;;3.30;2.70;;;;;;;;;;5051744;28;20193;-83
2021/12/10 01:28:21;;;;;;;3.20;2.90;;;;;;;;;;5051510;28;20293;-82
2021/12/10 01:30:49;;;;;;;3.25;2.95;;;;;;;;;;5048435;28;20190;-82
2021/12/10 01:33:18;;;;;;;5.32;2.70;;;;;;;;;;5054545;28;20682;-82
2021/12/10 01:35:53;;;;;;;2.88;2.67;;;;;;;;;;5057732;28;20194;-81
2021/12/10 01:38:20;;;;;;;3.30;2.55;;;;;;;;;;5056352;28;20275;-81
2021/12/10 01:40:49;;;;;;;3.03;2.72;;;;;;;;;;5054305;28;20202;-81
2021/12/10 01:43:23;;;;;;;3.10;2.83;;;;;;;;;;5042740;28;20199;-82
2021/12/10 01:45:52;;;;;;;8.18;2.92;;;;;;;;;;5049765;28;20681;-81
2021/12/10 01:48:21;;;;;;;3.38;3.08;;;;;;;;;;5050688;28;20206;-83
2021/12/10 01:50:48;;;;;;;2.90;2.60;;;;;;;;;;5058033;28;20191;-80
2021/12/10 01:53:17;;;;;;;4.30;3.08;;;;;;;;;;5050043;28;20230;-82
2021/12/10 01:55:45;;;;;;;3.25;2.95;;;;;;;;;;5051194;28;20195;-81
2021/12/10 01:58:14;;;;;;;2.97;2.28;;;;;;;;;;5051975;28;20187;-82
2021/12/10 02:00:44;;;;;;;3.20;2.90;;;;;;;;;;5052966;28;20240;-85
2021/12/10 02:03:12;;;;;;;2.65;2.45;;;;;;;;;;5059314;28;20202;-83
2021/12/10 02:05:39;;;;;;;2.53;2.10;;;;;;;;;;5049743;28;20207;-83
2021/12/10 02:08:08;;;;;;;2.97;2.63;;;;;;;;;;5058033;28;20684;-83
2021/12/10 02:10:35;;;;;;;4.10;3.10;;;;;;;;;;5059247;28;20198;-84
2021/12/10 02:13:02;;;;;;;6.70;3.40;;;;;;;;;;5050464;28;20218;-84
2021/12/10 02:15:29;;;;;;;4.57;3.30;;;;;;;;;;5046536;28;20203;-83
2021/12/10 02:17:59;;;;;;;2.72;2.53;;;;;;;;;;5058935;28;20195;-83
2021/12/10 02:20:28;;;;;;;3.10;2.80;;;;;;;;;;5051367;28;20613;-86
2021/12/10 02:22:57;;;;;;;3.15;2.85;;;;;;;;;;5051891;28;20194;-86
2021/12/10 02:25:25;;;;;;;5.10;3.03;;;;;;;;;;5066033;28;20269;-84
2021/12/10 02:27:54;;;;;;;3.33;2.67;;;;;;;;;;5074738;28;20209;-82
2021/12/10 02:30:23;;;;;;;3.67;3.20;;;;;;;;;;5074627;28;20573;-83
2021/12/10 02:32:50;;;;;;;3.30;3.00;;;;;;;;;;5052644;28;20210;-85
2021/12/10 02:35:17;;;;;;;3.22;2.90;;;;;;;;;;5062230;28;20202;-81
2021/12/10 02:37:45;;;;;;;3.45;2.90;;;;;;;;;;5063064;28;20209;-81
2021/12/10 02:40:15;;;;;;;3.17;2.55;;;;;;;;;;5068719;28;20205;-84
2021/12/10 02:42:42;;;;;;;2.80;2.60;;;;;;;;;;5059173;28;20201;-85
2021/12/10 02:45:10;;;;;;;5.22;3.55;;;;;;;;;;5053917;28;20187;-84
2021/12/10 02:47:38;;;;;;;2.80;2.00;;;;;;;;;;5055154;28;20221;-85
2021/12/10 02:50:06;;;;;;;3.17;2.90;;;;;;;;;;5053290;28;20195;-81
2021/12/10 02:52:34;;;;;;;2.80;2.38;;;;;;;;;;5061549;28;20195;-82
2021/12/10 02:55:01;;;;;;;4.53;3.13;;;;;;;;;;5054435;28;20244;-84
2021/12/10 02:57:29;;;;;;;3.38;2.10;;;;;;;;;;5054267;28;20191;-82
2021/12/10 02:59:56;;;;;;;3.67;3.10;;;;;;;;;;5054013;28;20222;-82
2021/12/10 03:02:26;;;;;;;5.20;3.42;;;;;;;;;;5036707;28;20203;-82
2021/12/10 03:04:53;;;;;;;4.22;2.80;;;;;;;;;;5044401;28;20199;-82
2021/12/10 03:07:22;;;;;;;4.95;3.55;;;;;;;;;;5054853;28;20210;-83
2021/12/10 03:09:50;;;;;;;2.97;2.70;;;;;;;;;;5063626;28;20186;-83
2021/12/10 03:12:18;;;;;;;3.15;2.55;;;;;;;;;;5053629;28;20203;-82
2021/12/10 03:14:48;;;;;;;5.65;3.00;;;;;;;;;;5053132;28;20222;-83
2021/12/10 03:17:17;;;;;;;4.15;3.30;;;;;;;;;;5065203;28;20190;-84
2021/12/10 03:19:44;;;;;;;2.70;2.50;;;;;;;;;;5063040;28;20678;-82
2021/12/10 03:22:12;;;;;;;2.90;2.60;;;;;;;;;;5047421;28;20222;-83
2021/12/10 03:24:39;;;;;;;5.00;2.95;;;;;;;;;;5054604;28;20273;-82
2021/12/10 03:27:07;;;;;;;3.25;3.05;;;;;;;;;;5062047;28;20559;-84
2021/12/10 03:29:36;;;;;;;4.18;3.00;;;;;;;;;;5066445;28;20207;-81
2021/12/10 03:32:07;;;;;;;4.65;3.22;;;;;;;;;;5033815;28;20250;-81
2021/12/10 03:34:34;;;;;;;3.95;2.90;;;;;;;;;;5051768;28;20702;-81
2021/12/10 03:37:01;;;;;;;2.92;2.72;;;;;;;;;;5053271;28;20199;-81
2021/12/10 03:39:29;;;;;;;7.25;2.97;;;;;;;;;;5060909;28;20219;-81
2021/12/10 03:41:57;;;;;;;4.03;2.38;;;;;;;;;;5044926;28;20194;-81
2021/12/10 03:44:24;;;;;;;3.28;2.97;;;;;;;;;;5051087;28;20654;-80
2021/12/10 03:46:52;;;;;;;3.95;3.05;;;;;;;;;;5056993;28;20199;-78
2021/12/10 03:49:21;;;;;;;2.65;2.45;;;;;;;;;;5069615;28;20199;-81
2021/12/10 03:51:49;;;;;;;2.60;2.40;;;;;;;;;;5060552;28;20195;-80
2021/12/10 03:54:17;;;;;;;4.40;4.05;;;;;;;;;;5060700;28;20225;-81
2021/12/10 03:56:45;;;;;;;5.07;3.10;;;;;;;;;;5061037;28;20256;-83
2021/12/10 03:59:14;;;;;;;2.58;2.38;;;;;;;;;;5068950;28;20214;-82
2021/12/10 04:01:43;;;;;;;3.10;2.80;;;;;;;;;;5057096;28;20203;-81
2021/12/10 04:04:11;;;;;;;3.47;2.90;;;;;;;;;;5058211;28;20199;-80
2021/12/10 04:06:40;;;;;;;3.47;2.50;;;;;;;;;;5059294;28;20329;-82
2021/12/10 04:09:09;;;;;;;3.78;3.03;;;;;;;;;;5064505;28;20562;-82
2021/12/10 04:11:37;;;;;;;3.38;3.08;;;;;;;;;;5052386;28;20235;-82
2021/12/10 04:14:05;;;;;;;3.35;1.95;;;;;;;;;;5051990;28;20574;-82
2021/12/10 04:16:32;;;;;;;2.67;2.47;;;;;;;;;;5056420;28;20199;-82
2021/12/10 04:19:02;;;;;;;2.72;2.47;;;;;;;;;;5052523;28;20206;-82
2021/12/10 04:21:29;;;;;;;4.35;3.35;;;;;;;;;;5054009;28;20196;-82
2021/12/10 04:23:58;;;;;;;3.97;3.55;;;;;;;;;;5058724;28;20198;-82
2021/12/10 04:26:27;;;;;;;3.05;2.75;;;;;;;;;;5054080;28;20210;-81
2021/12/10 04:28:55;;;;;;;3.75;2.47;;;;;;;;;;5051369;28;20205;-81
2021/12/10 04:31:22;;;;;;;5.65;3.67;;;;;;;;;;5048260;28;20195;-82
2021/12/10 04:33:49;;;;;;;3.00;2.67;;;;;;;;;;5045287;28;20693;-81
2021/12/10 04:36:17;;;;;;;5.05;2.80;;;;;;;;;;5052733;28;20203;-81
2021/12/10 04:38:44;;;;;;;3.50;3.05;;;;;;;;;;5053243;28;20234;-81
2021/12/10 04:41:13;;;;;;;3.28;2.97;;;;;;;;;;5058896;28;20195;-82
2021/12/10 04:43:41;;;;;;;4.25;2.90;;;;;;;;;;5049954;28;20193;-81
2021/12/10 04:46:08;;;;;;;5.75;3.22;;;;;;;;;;5047505;28;20684;-82
2021/12/10 04:48:44;;;;;;;2.65;2.42;;;;;;;;;;5051711;28;20666;-80
2021/12/10 04:51:11;;;;;;;4.05;2.90;;;;;;;;;;5058488;28;20256;-82
2021/12/10 04:53:40;;;;;;;5.30;3.35;;;;;;;;;;5050515;28;20210;-81
2021/12/10 04:56:07;;;;;;;5.97;2.60;;;;;;;;;;5051606;28;20658;-81
2021/12/10 04:58:35;;;;;;;3.70;2.90;;;;;;;;;;5052844;28;20203;-81
2021/12/10 05:01:03;;;;;;;3.70;3.40;;;;;;;;;;5059991;28;20925;-81
2021/12/10 05:03:30;;;;;;;2.30;2.10;;;;;;;;;;5050944;28;20558;-81
2021/12/10 05:06:02;;;;;;;4.20;3.05;;;;;;;;;;5055740;28;20198;-81
2021/12/10 05:08:29;;;;;;;3.67;2.90;;;;;;;;;;5059665;28;20209;-82
2021/12/10 05:10:56;;;;;;;3.58;2.65;;;;;;;;;;5051610;28;20207;-80
2021/12/10 05:13:24;;;;;;;5.07;2.97;;;;;;;;;;5050914;28;20217;-80
2021/12/10 05:15:57;;;;;;;11.30;4.43;;;;;;;;;;5047292;28;20226;-80
2021/12/10 05:18:26;;;;;;;3.35;2.70;;;;;;;;;;5056469;28;20289;-81
2021/12/10 05:20:54;;;;;;;4.97;3.53;;;;;;;;;;5050937;28;20750;-80
2021/12/10 05:23:22;;;;;;;3.53;2.83;;;;;;;;;;5054868;28;20203;-80
2021/12/10 05:25:49;;;;;;;3.20;2.90;;;;;;;;;;5050034;28;20617;-79
2021/12/10 05:28:16;;;;;;;2.25;1.95;;;;;;;;;;5059413;28;20202;-80
2021/12/10 05:30:43;;;;;;;2.63;2.17;;;;;;;;;;5031088;28;20651;-79
2021/12/10 05:33:16;;;;;;;4.40;2.80;;;;;;;;;;5043182;28;20203;-80
2021/12/10 05:35:43;;;;;;;2.95;1.98;;;;;;;;;;5049157;28;20215;-80
2021/12/10 05:38:10;;;;;;;2.85;2.40;;;;;;;;;;5048958;28;20201;-80
2021/12/10 05:40:37;;;;;;;2.47;2.10;;;;;;;;;;5048841;28;20208;-80
2021/12/10 05:43:05;;;;;;;5.47;2.25;;;;;;;;;;5045472;28;20210;-82
2021/12/10 05:45:32;;;;;;;5.18;2.08;;;;;;;;;;5052445;28;20677;-81
2021/12/10 05:47:59;;;;;;;6.43;2.30;;;;;;;;;;5059693;28;20286;-82
2021/12/10 05:50:29;;;;;;;6.70;2.80;;;;;;;;;;5050132;28;20201;-80
2021/12/10 05:52:56;;;;;;;7.82;3.20;;;;;;;;;;5060938;28;20198;-80
2021/12/10 05:55:23;;;;;;;2.95;1.73;;;;;;;;;;5058655;28;20226;-80
2021/12/10 05:57:50;;;;;;;2.55;2.05;;;;;;;;;;5063849;28;20214;-81
2021/12/10 06:00:22;;;;;;;4.07;1.98;;;;;;;;;;5049046;28;20704;-81
2021/12/10 06:02:49;;;;;;;4.00;2.70;;;;;;;;;;5054671;28;20196;-80
2021/12/10 06:05:16;;;;;;;3.17;1.88;;;;;;;;;;5053286;28;20217;-80
2021/12/10 06:07:45;;;;;;;3.33;3.03;;;;;;;;;;5043877;28;20203;-80
2021/12/10 06:10:13;;;;;;;3.47;1.90;;;;;;;;;;5063124;28;20235;-81
2021/12/10 06:12:40;;;;;;;2.60;2.15;;;;;;;;;;5054855;28;20273;-81
2021/12/10 06:15:08;;;;;;;2.75;1.67;;;;;;;;;;5047979;28;20214;-82
2021/12/10 06:17:36;;;;;;;2.95;1.80;;;;;;;;;;5058573;28;20206;-81
2021/12/10 06:20:03;;;;;;;2.67;2.00;;;;;;;;;;5053671;28;20198;-80
2021/12/10 06:22:30;;;;;;;4.65;1.75;;;;;;;;;;5058800;28;20269;-82
2021/12/10 06:24:59;;;;;;;4.18;1.35;;;;;;;;;;5064654;28;20206;-82
2021/12/10 06:27:26;;;;;;;3.40;2.00;;;;;;;;;;5063768;28;20210;-81
2021/12/10 06:29:53;;;;;;;3.17;1.88;;;;;;;;;;5069146;28;20195;-84
2021/12/10 06:32:20;;;;;;;2.00;1.85;;;;;;;;;;5055540;28;20211;-82
2021/12/10 06:34:47;;;;;;;2.88;1.52;;;;;;;;;;5052207;28;20221;-84
2021/12/10 06:37:14;;;;;;;3.72;2.13;;;;;;;;;;5052560;28;20211;-81
2021/12/10 06:39:41;;;;;;;5.40;1.75;;;;;;;;;;5060695;28;20199;-82
2021/12/10 06:42:10;;;;;;;3.67;1.75;;;;;;;;;;5053562;28;20191;-82
2021/12/10 06:44:37;;;;;;;3.78;1.60;;;;;;;;;;5053052;28;20875;-80
2021/12/10 06:47:06;;;;;;;3.10;1.63;;;;;;;;;;5053511;28;20681;-80
2021/12/10 06:49:34;;;;;;;7.00;2.00;;;;;;;;;;5053011;28;20195;-80
2021/12/10 06:52:01;;;;;;;5.35;1.95;;;;;;;;;;5054881;28;20195;-80
2021/12/10 06:54:29;;;;;;;1.60;1.40;;;;;;;;;;5071864;28;20214;-80
2021/12/10 06:56:56;;;;;;;2.63;1.42;;;;;;;;;;5060076;28;20198;-80
2021/12/10 06:59:26;;;;;;;2.92;1.83;;;;;;;;;;5057880;28;20730;-83
2021/12/10 07:01:54;;;;;;;3.47;1.90;;;;;;;;;;5059423;28;20578;-83
2021/12/10 07:04:21;;;;;;;3.55;2.00;;;;;;;;;;5045459;28;20199;-82
2021/12/10 07:06:49;;;;;;;2.35;1.80;;;;;;;;;;5056049;28;20650;-83
2021/12/10 07:09:19;;;;;;;3.22;1.90;;;;;;;;;;5067657;28;20213;-83
2021/12/10 07:11:47;;;;;;;2.13;1.50;;;;;;;;;;5059214;28;20757;-84
2021/12/10 07:14:14;;;;;;;3.35;1.80;;;;;;;;;;5054808;28;20709;-87
2021/12/10 07:16:43;;;;;;;2.55;1.90;;;;;;;;;;5048252;28;20205;-85
2021/12/10 07:19:10;;;;;;;2.65;2.08;;;;;;;;;;5061392;28;20203;-81
2021/12/10 07:21:37;;;;;;;3.70;1.67;;;;;;;;;;5053573;28;20573;-81
2021/12/10 07:24:07;;;;;;;2.97;1.88;;;;;;;;;;5064785;28;20194;-81
2021/12/10 07:26:34;;;;;;;3.67;2.20;;;;;;;;;;5064452;28;20198;-81
2021/12/10 07:29:02;;;;;;;3.83;1.50;;;;;;;;;;5067801;28;20205;-81
2021/12/10 07:31:29;;;;;;;2.38;1.92;;;;;;;;;;5064882;28;20227;-82
2021/12/10 07:33:57;;;;;;;1.80;1.50;;;;;;;;;;5053500;28;20199;-85
2021/12/10 07:36:25;;;;;;;2.65;1.90;;;;;;;;;;5050823;28;20226;-81
2021/12/10 07:38:52;;;;;;;4.85;1.98;;;;;;;;;;5060946;28;20194;-82
2021/12/10 07:41:19;;;;;;;3.47;2.00;;;;;;;;;;5042319;28;20202;-83
2021/12/10 07:43:46;;;;;;;3.03;2.35;;;;;;;;;;5053230;28;20206;-84
2021/12/10 07:46:14;;;;;;;1.63;1.48;;;;;;;;;;5048524;28;20222;-83
2021/12/10 07:48:41;;;;;;;4.93;2.65;;;;;;;;;;5061332;28;20191;-84
2021/12/10 07:51:11;;;;;;;2.28;2.00;;;;;;;;;;5051790;28;20331;-83
2021/12/10 07:53:39;;;;;;;3.83;2.30;;;;;;;;;;5056805;28;20213;-83
2021/12/10 07:56:08;;;;;;;3.85;1.90;;;;;;;;;;5057313;28;20609;-83
2021/12/10 07:58:37;;;;;;;2.72;1.67;;;;;;;;;;5061057;28;20205;-83
2021/12/10 08:01:07;;;;;;;3.97;2.20;;;;;;;;;;5056509;28;20698;-82
2021/12/10 08:03:34;;;;;;;6.30;1.73;;;;;;;;;;5032942;28;20219;-81
2021/12/10 08:06:01;;;;;;;4.85;2.30;;;;;;;;;;5050401;28;20195;-81
2021/12/10 08:08:30;;;;;;;4.45;2.38;;;;;;;;;;5055049;28;20669;-81
2021/12/10 08:10:57;;;;;;;4.18;1.83;;;;;;;;;;5063236;28;20206;-80
2021/12/10 08:13:24;;;;;;;2.45;2.25;;;;;;;;;;5053278;28;20632;-83
2021/12/10 08:15:52;;;;;;;6.40;2.60;;;;;;;;;;5053024;28;20210;-89
2021/12/10 08:18:19;;;;;;;4.03;2.17;;;;;;;;;;5057848;28;20194;-90
2021/12/10 08:20:48;;;;;;;3.17;2.75;;;;;;;;;;5053937;28;20203;-85
2021/12/10 08:23:15;;;;;;;7.38;2.72;;;;;;;;;;5062481;28;20218;-89
2021/12/10 08:25:44;;;;;;;2.67;1.50;;;;;;;;;;5063989;28;20191;-88
2021/12/10 08:28:11;;;;;;;5.63;1.90;;;;;;;;;;5054245;28;20195;-89
2021/12/10 08:30:39;;;;;;;6.38;1.95;;;;;;;;;;5054377;28;20199;-87
2021/12/10 08:33:12;;;;;;;2.33;2.10;;;;;;;;;;5045719;28;20241;-82
2021/12/10 08:35:39;;;;;;;3.20;2.08;;;;;;;;;;5052436;28;20250;-84
2021/12/10 08:38:06;;;;;;;4.72;2.10;;;;;;;;;;5053500;28;20547;-83
2021/12/10 08:40:36;;;;;;;4.75;1.80;;;;;;;;;;5051162;28;20199;-83
2021/12/10 08:43:05;;;;;;;4.03;2.28;;;;;;;;;;5050746;28;20206;-83
2021/12/10 08:45:32;;;;;;;4.63;2.45;;;;;;;;;;5051473;28;20199;-83
2021/12/10 08:47:59;;;;;;;5.72;2.25;;;;;;;;;;5050795;28;20206;-82
2021/12/10 08:50:27;;;;;;;3.35;1.98;;;;;;;;;;5051646;28;20580;-82
2021/12/10 08:52:57;;;;;;;2.47;2.20;;;;;;;;;;5038734;28;20211;-82
2021/12/10 08:55:24;;;;;;;2.10;1.70;;;;;;;;;;5051486;28;20222;-83
2021/12/10 08:57:52;;;;;;;2.10;1.90;;;;;;;;;;5051336;28;20191;-82
2021/12/10 09:00:21;;;;;;;4.28;2.80;;;;;;;;;;5049850;28;20563;-82
2021/12/10 09:02:48;;;;;;;4.65;2.10;;;;;;;;;;5052498;28;20218;-82
2021/12/10 09:05:15;;;;;;;3.55;2.30;;;;;;;;;;5052455;28;20677;-82
2021/12/10 09:07:44;;;;;;;2.40;1.85;;;;;;;;;;5048740;28;20194;-83
2021/12/10 09:10:12;;;;;;;9.95;2.35;;;;;;;;;;5051092;28;20209;-83
2021/12/10 09:12:40;;;;;;;3.58;2.35;;;;;;;;;;5051217;28;20674;-83
2021/12/10 09:15:08;;;;;;;4.18;2.20;;;;;;;;;;5051882;28;20221;-83
2021/12/10 09:17:37;;;;;;;6.68;2.55;;;;;;;;;;5035219;28;20267;-82
2021/12/10 09:20:06;;;;;;;3.67;2.50;;;;;;;;;;5036534;28;20729;-84
2021/12/10 09:22:34;;;;;;;4.25;2.63;;;;;;;;;;5048004;28;20195;-83
2021/12/10 09:25:01;;;;;;;4.55;2.60;;;;;;;;;;5051070;28;20199;-83
2021/12/10 09:27:28;;;;;;;4.65;2.80;;;;;;;;;;5050851;28;20214;-83
2021/12/10 09:29:56;;;;;;;3.28;2.42;;;;;;;;;;5050724;28;20693;-83
2021/12/10 09:32:26;;;;;;;4.10;2.58;;;;;;;;;;5050527;28;20198;-83
2021/12/10 09:34:57;;;;;;;5.00;2.30;;;;;;;;;;5050683;28;20656;-83
2021/12/10 09:37:24;;;;;;;6.53;3.13;;;;;;;;;;5041874;28;20584;-83
2021/12/10 09:39:52;;;;;;;5.32;2.60;;;;;;;;;;5050691;28;20665;-83
2021/12/10 09:42:22;;;;;;;4.30;2.53;;;;;;;;;;5050040;28;20686;-83
2021/12/10 09:44:54;;;;;;;4.40;3.10;;;;;;;;;;5050562;28;20238;-82
2021/12/10 09:47:22;;;;;;;5.65;3.55;;;;;;;;;;5050230;28;20197;-84
2021/12/10 09:49:50;;;;;;;4.53;2.17;;;;;;;;;;5047314;28;20655;-83
2021/12/10 09:52:20;;;;;;;4.65;2.28;;;;;;;;;;5043952;28;20208;-82
2021/12/10 09:54:47;;;;;;;6.43;3.30;;;;;;;;;;5050514;28;20282;-81
2021/12/10 09:57:16;;;;;;;8.23;2.80;;;;;;;;;;5050191;28;20219;-81
2021/12/10 09:59:45;;;;;;;10.77;3.22;;;;;;;;;;5048379;28;20722;-82
2021/12/10 10:02:13;;;;;;;6.97;2.78;;;;;;;;;;5039749;28;20740;-81
2021/12/10 10:04:46;;;;;;;5.70;3.13;;;;;;;;;;5049906;28;20205;-81
2021/12/10 10:07:14;;;;;;;3.60;3.10;;;;;;;;;;5045483;28;20191;-83
2021/12/10 10:09:43;;;;;;;4.90;2.80;;;;;;;;;;5047835;28;20574;-81
2021/12/10 10:12:11;;;;;;;5.20;2.63;;;;;;;;;;5047974;28;20663;-82
2021/12/10 10:14:39;;;;;;;5.85;2.10;;;;;;;;;;5045370;28;20195;-81
2021/12/10 10:17:06;;;;;;;4.78;3.03;;;;;;;;;;5047019;28;20222;-81
2021/12/10 10:19:34;;;;;;;3.58;2.33;;;;;;;;;;5048225;28;20199;-82
2021/12/10 10:22:01;;;;;;;5.55;2.78;;;;;;;;;;5039702;28;20204;-82
2021/12/10 10:24:30;;;;;;;7.70;2.50;;;;;;;;;;5045006;28;20206;-82
2021/12/10 10:26:59;;;;;;;4.55;2.63;;;;;;;;;;5046782;28;20283;-83
2021/12/10 10:29:28;;;;;;;4.60;3.28;;;;;;;;;;5048898;28;20203;-77
2021/12/10 10:31:59;;;;;;;8.45;2.65;;;;;;;;;;5049414;28;20585;-82
2021/12/10 10:34:27;;;;;;;9.52;3.58;;;;;;;;;;5051086;28;20194;-81
2021/12/10 10:36:55;;;;;;;12.65;4.25;;;;;;;;;;5049341;28;20229;-82
2021/12/10 10:39:24;;;;;;;8.18;3.10;;;;;;;;;;5049658;28;20210;-82
2021/12/10 10:41:53;;;;;;;3.38;2.38;;;;;;;;;;5048636;28;20195;-76
2021/12/10 10:44:22;;;;;;;5.57;2.60;;;;;;;;;;5049895;28;20225;-76
2021/12/10 10:46:49;;;;;;;4.80;1.45;;;;;;;;;;5051404;28;20195;-74
2021/12/10 10:49:31;;;;;;;6.90;2.10;;;;;;;;;;5052415;28;20455;-77
2021/12/10 10:51:59;;;;;;;4.05;1.80;;;;;;;;;;5047549;28;20190;-80
2021/12/10 10:54:31;;;;;;;3.83;1.73;;;;;;;;;;5035616;28;20210;-80
2021/12/10 10:56:58;;;;;;;2.13;1.70;;;;;;;;;;5053322;28;20215;-77
2021/12/10 10:59:28;;;;;;;10.43;1.55;;;;;;;;;;5051846;28;20226;-81
2021/12/10 11:02:00;;;;;;;5.15;1.33;;;;;;;;;;5045827;28;20204;-82
2021/12/10 11:04:28;;;;;;;9.50;2.47;;;;;;;;;;5058395;28;20190;-81
2021/12/10 11:06:56;;;;;;;7.63;1.83;;;;;;;;;;5047590;28;20278;-81
2021/12/10 11:09:26;;;;;;;3.28;1.33;;;;;;;;;;5061464;28;20209;-83
2021/12/10 11:11:55;;;;;;;3.33;1.73;;;;;;;;;;5045653;28;20234;-83
2021/12/10 11:14:25;;;;;;;3.67;1.92;;;;;;;;;;5052636;28;20206;-82
2021/12/10 11:16:56;;;;;;;2.15;1.40;;;;;;;;;;5058455;28;20211;-82
2021/12/10 11:19:25;;;;;;;3.25;1.88;;;;;;;;;;5045998;28;20554;-81
2021/12/10 11:21:54;;;;;;;2.55;1.58;;;;;;;;;;5052268;28;20206;-81
2021/12/10 11:24:23;;;;;;;4.10;1.42;;;;;;;;;;5053264;28;20586;-81
2021/12/10 11:26:55;;;;;;;2.00;1.20;;;;;;;;;;5051286;28;20195;-82
2021/12/10 11:29:29;;;;;;;2.05;1.50;;;;;;;;;;5048911;28;20207;-81
2021/12/10 11:31:59;;;;;;;2.88;1.40;;;;;;;;;;5050171;28;20205;-81
2021/12/10 11:34:40;;;;;;;2.17;1.50;;;;;;;;;;5052917;28;20218;-82
2021/12/10 11:37:08;;;;;;;4.45;1.65;;;;;;;;;;5044687;28;20219;-81
2021/12/10 11:39:43;;;;;;;2.75;1.50;;;;;;;;;;5052463;28;20207;-80
2021/12/10 11:42:25;;;;;;;5.32;1.60;;;;;;;;;;5045606;28;20194;-82
2021/12/10 11:45:05;;;;;;;2.20;1.38;;;;;;;;;;5052603;28;20515;-81
2021/12/10 11:47:45;;;;;;;5.93;1.80;;;;;;;;;;5037611;28;20573;-82
2021/12/10 11:50:17;;;;;;;3.28;1.10;;;;;;;;;;5034714;28;20199;-82
2021/12/10 11:52:44;;;;;;;1.30;1.10;;;;;;;;;;5053281;28;20221;-81
2021/12/10 11:55:11;;;;;;;3.78;1.48;;;;;;;;;;5051076;28;20202;-81
2021/12/10 11:57:40;;;;;;;5.57;1.63;;;;;;;;;;5060220;28;20214;-82
2021/12/10 12:00:09;;;;;;;2.47;1.70;;;;;;;;;;5048270;28;20242;-82
2021/12/10 12:02:37;;;;;;;2.15;1.25;;;;;;;;;;5048502;28;20203;-81
2021/12/10 12:05:10;;;;;;;3.50;1.98;;;;;;;;;;5055881;28;20222;-81
2021/12/10 12:07:39;;;;;;;2.08;1.27;;;;;;;;;;5048878;28;20198;-81
2021/12/10 12:10:16;;;;;;;2.83;1.50;;;;;;;;;;5049698;28;20203;-81
2021/12/10 12:12:44;;;;;;;3.95;1.60;;;;;;;;;;5058662;28;20293;-81
2021/12/10 12:15:27;;;;;;;3.47;1.45;;;;;;;;;;5046007;28;20209;-81
2021/12/10 12:17:56;;;;;;;1.52;1.17;;;;;;;;;;5060976;28;20301;-81
2021/12/10 12:20:30;;;;;;;1.58;1.30;;;;;;;;;;5058229;28;20205;-81
2021/12/10 12:25:44;;;;;;;2.20;1.30;;;;;;;;;;5052217;28;20193;-82
2021/12/10 12:28:12;;;;;;;3.15;1.25;;;;;;;;;;5059703;28;20195;-81
2021/12/10 12:30:52;;;;;;;1.88;1.00;;;;;;;;;;5055808;28;20202;-81
2021/12/10 12:33:20;;;;;;;1.80;1.60;;;;;;;;;;5059258;28;20190;-81
2021/12/10 12:35:49;;;;;;;2.78;1.60;;;;;;;;;;5058793;28;20195;-81
2021/12/10 12:38:17;;;;;;;5.30;1.88;;;;;;;;;;5051393;28;20227;-80
2021/12/10 12:40:45;;;;;;;3.67;1.67;;;;;;;;;;5052880;28;20199;-81
2021/12/10 12:43:12;;;;;;;6.65;1.55;;;;;;;;;;5051095;28;20194;-82
2021/12/10 12:45:40;;;;;;;4.90;1.42;;;;;;;;;;5047611;28;20209;-80
2021/12/10 12:48:09;;;;;;;2.33;1.40;;;;;;;;;;5054507;28;20206;-80
2021/12/10 12:50:39;;;;;;;8.90;2.58;;;;;;;;;;5052514;28;20194;-81
2021/12/10 12:53:08;;;;;;;2.63;1.83;;;;;;;;;;5063026;28;20247;-80
2021/12/10 12:55:41;;;;;;;1.83;1.20;;;;;;;;;;5052938;28;20198;-79
2021/12/10 12:58:20;;;;;;;7.28;2.28;;;;;;;;;;5051186;28;20207;-80
2021/12/10 13:00:52;;;;;;;4.75;1.83;;;;;;;;;;5049286;28;20581;-80
2021/12/10 13:03:22;;;;;;;3.38;1.90;;;;;;;;;;5052466;28;20684;-79
2021/12/10 13:05:51;;;;;;;2.20;1.20;;;;;;;;;;5050896;28;20203;-80
2021/12/10 13:08:21;;;;;;;3.70;1.70;;;;;;;;;;5044608;28;20206;-80
2021/12/10 13:10:54;;;;;;;2.33;1.58;;;;;;;;;;5050640;28;20194;-80
2021/12/10 13:13:31;;;;;;;1.73;1.13;;;;;;;;;;5050350;28;20616;-80
2021/12/10 13:15:59;;;;;;;3.40;1.60;;;;;;;;;;5038233;28;20273;-80
2021/12/10 13:18:26;;;;;;;5.15;1.80;;;;;;;;;;5043481;28;20222;-79
2021/12/10 13:20:53;;;;;;;4.50;1.98;;;;;;;;;;5054772;28;20198;-80
2021/12/10 13:23:24;;;;;;;5.07;1.67;;;;;;;;;;5046741;28;20199;-79
2021/12/10 13:25:52;;;;;;;6.40;1.42;;;;;;;;;;5050699;28;20207;-80
2021/12/10 13:28:19;;;;;;;5.88;1.42;;;;;;;;;;5049559;28;20209;-81
2021/12/10 13:30:49;;;;;;;3.40;1.25;;;;;;;;;;5046137;28;20205;-80
2021/12/10 13:33:17;;;;;;;2.28;1.40;;;;;;;;;;5048782;28;20697;-80
2021/12/10 13:35:45;;;;;;;2.00;1.00;;;;;;;;;;5050170;28;20555;-79
2021/12/10 13:38:12;;;;;;;2.05;1.20;;;;;;;;;;5048157;28;20230;-79
2021/12/10 13:40:42;;;;;;;4.45;1.40;;;;;;;;;;5049794;28;20213;-82
2021/12/10 13:43:12;;;;;;;1.88;1.27;;;;;;;;;;5046431;28;20302;-79
2021/12/10 13:45:42;;;;;;;5.50;1.40;;;;;;;;;;5050265;28;20245;-79
2021/12/10 13:48:13;;;;;;;4.88;1.20;;;;;;;;;;5043226;28;22116;-79
2021/12/10 13:50:44;;;;;;;8.65;2.35;;;;;;;;;;5041891;28;20224;-81
2021/12/10 13:53:12;;;;;;;6.88;1.35;;;;;;;;;;5042424;28;20543;-79
2021/12/10 13:55:42;;;;;;;5.93;2.00;;;;;;;;;;5054432;28;20642;-80
2021/12/10 13:58:10;;;;;;;2.00;1.20;;;;;;;;;;5057482;28;20210;-79
2021/12/10 14:00:38;;;;;;;3.20;1.40;;;;;;;;;;5047543;28;20240;-80
2021/12/10 14:03:05;;;;;;;1.75;1.25;;;;;;;;;;5031034;28;20210;-80
2021/12/10 14:05:37;;;;;;;2.78;1.40;;;;;;;;;;5057699;28;20199;-79
2021/12/10 14:08:08;;;;;;;3.45;1.58;;;;;;;;;;5055614;28;20248;-79
2021/12/10 14:10:39;;;;;;;3.38;1.60;;;;;;;;;;5048008;28;20281;-80
2021/12/10 14:13:07;;;;;;;4.70;2.10;;;;;;;;;;5067998;28;20201;-80
2021/12/10 14:15:41;;;;;;;2.05;1.35;;;;;;;;;;5049669;28;20201;-80
2021/12/10 14:18:16;;;;;;;4.63;1.50;;;;;;;;;;5050277;28;20226;-80
2021/12/10 14:20:45;;;;;;;4.38;1.67;;;;;;;;;;5052222;28;20646;-79
2021/12/10 14:23:14;;;;;;;5.00;1.20;;;;;;;;;;5052479;28;20203;-80
2021/12/10 14:25:45;;;;;;;5.20;1.35;;;;;;;;;;5057437;28;20551;-80
2021/12/10 14:28:16;;;;;;;3.50;1.75;;;;;;;;;;5054927;28;20312;-80
2021/12/10 14:30:47;;;;;;;3.30;1.70;;;;;;;;;;5049315;28;20390;-80
2021/12/10 14:33:17;;;;;;;3.13;1.30;;;;;;;;;;5037584;28;20222;-79
2021/12/10 14:35:47;;;;;;;1.90;1.35;;;;;;;;;;5054345;28;20203;-81
2021/12/10 14:38:14;;;;;;;1.95;1.50;;;;;;;;;;5059957;28;20400;-80
2021/12/10 14:40:48;;;;;;;5.90;1.70;;;;;;;;;;5050384;28;20198;-81
2021/12/10 14:43:21;;;;;;;3.63;1.65;;;;;;;;;;5044940;28;20205;-79
2021/12/10 14:46:22;;;;;;;1.75;1.45;;;;;;;;;;5045534;28;20223;-79
2021/12/10 14:49:01;;;;;;;2.42;1.42;;;;;;;;;;5049780;28;20194;-79
2021/12/10 14:51:29;;;;;;;6.95;1.95;;;;;;;;;;5043640;28;20574;-80
2021/12/10 14:54:03;;;;;;;2.58;1.80;;;;;;;;;;5058521;28;20218;-79
2021/12/10 14:56:33;;;;;;;3.13;1.75;;;;;;;;;;5053257;28;20657;-79
2021/12/10 14:59:07;;;;;;;8.68;2.25;;;;;;;;;;5052329;28;20220;-79
2021/12/10 15:01:37;;;;;;;4.43;1.40;;;;;;;;;;5053660;28;20806;-79
2021/12/10 15:04:06;;;;;;;12.95;3.58;;;;;;;;;;5053494;28;20602;-79